Time;durP1;ratioP1;P1;durP2;ratioP2;P2;SDS_P1;SDS_P2;PMS_P1;PMS_P2;Temp;Humidity;BMP_temperature;BMP_pressure;BME280_temperature;BME280_humidity;BME280_pressure;Samples;Min_cycle;Max_cycle;Signal;HPM_P1;HPM_P2
2022/04/21 00:03:18;;;;;;;14.87;11.37;;;;;;;4.40;100.00;96213.06;10541609;28;20716;-52
2022/04/21 00:08:20;;;;;;;14.90;10.43;;;;;;;4.40;100.00;96205.28;10541090;28;20218;-54
2022/04/21 00:13:20;;;;;;;18.40;11.90;;;;;;;4.32;100.00;96211.13;10541543;28;20226;-58
2022/04/21 00:18:20;;;;;;;14.63;11.53;;;;;;;4.33;100.00;96212.75;10540772;28;20210;-59
2022/04/21 00:23:27;;;;;;;18.73;13.27;;;;;;;4.26;100.00;96207.28;10541008;28;20679;-59
2022/04/21 00:28:31;;;;;;;14.40;11.10;;;;;;;4.49;100.00;96208.84;10540331;28;20238;-59
2022/04/21 00:33:32;;;;;;;15.43;12.07;;;;;;;4.46;100.00;96212.53;10539770;28;20218;-58
2022/04/21 00:38:32;;;;;;;16.33;11.83;;;;;;;4.52;100.00;96206.00;10540328;28;20324;-56
2022/04/21 00:43:33;;;;;;;14.40;11.43;;;;;;;4.51;100.00;96196.59;10539725;28;20282;-55
2022/04/21 00:48:33;;;;;;;17.33;11.57;;;;;;;4.53;100.00;96195.47;10539806;28;20211;-55
2022/04/21 00:53:34;;;;;;;14.90;9.80;;;;;;;4.54;100.00;96194.53;10538622;28;21000;-56
2022/04/21 00:58:35;;;;;;;12.47;10.57;;;;;;;4.53;100.00;96190.28;10539019;28;20441;-55
2022/04/21 01:03:35;;;;;;;15.67;11.73;;;;;;;4.43;100.00;96181.69;10539024;28;20187;-55
2022/04/21 01:08:37;;;;;;;15.37;11.67;;;;;;;4.57;100.00;96181.31;10538557;28;20237;-58
2022/04/21 01:13:38;;;;;;;14.70;11.47;;;;;;;4.57;100.00;96173.53;10539112;28;20708;-54
2022/04/21 01:18:38;;;;;;;14.70;10.57;;;;;;;4.52;100.00;96169.69;10538335;28;20213;-55
2022/04/21 01:23:38;;;;;;;19.47;12.20;;;;;;;4.37;100.00;96170.06;10538490;28;20182;-53
2022/04/21 01:28:39;;;;;;;15.33;12.33;;;;;;;4.37;100.00;96166.66;10537897;28;20242;-56
2022/04/21 01:33:40;;;;;;;18.57;12.13;;;;;;;4.49;100.00;96165.59;10537396;28;20222;-55
2022/04/21 01:43:59;;;;;;;21.17;15.20;;;;;;;4.29;100.00;96162.94;10536960;28;20209;-56
2022/04/21 01:49:00;;;;;;;17.20;14.37;;;;;;;4.35;100.00;96159.00;10536750;28;20206;-54
2022/04/21 01:54:00;;;;;;;17.00;13.57;;;;;;;4.53;100.00;96153.16;10536679;28;20210;-53
2022/04/21 01:59:00;;;;;;;16.60;12.40;;;;;;;4.56;100.00;96130.38;10536045;28;20707;-53
2022/04/21 02:04:05;;;;;;;16.83;11.57;;;;;;;4.66;100.00;96127.81;10536112;28;20183;-54
2022/04/21 02:09:05;;;;;;;15.20;12.27;;;;;;;4.62;100.00;96129.03;10528048;28;20229;-56
2022/04/21 02:14:06;;;;;;;16.43;12.97;;;;;;;4.46;100.00;96129.56;10535879;28;20301;-56
2022/04/21 02:19:06;;;;;;;19.33;14.27;;;;;;;4.38;100.00;96131.97;10536511;28;20210;-55
2022/04/21 02:24:07;;;;;;;31.77;16.83;;;;;;;4.21;100.00;96126.47;10535807;28;20183;-54
2022/04/21 02:29:07;;;;;;;21.57;16.67;;;;;;;4.22;100.00;96129.88;10535748;28;20379;-52
2022/04/21 02:34:08;;;;;;;26.10;17.20;;;;;;;4.26;100.00;96120.91;10517175;28;20363;-52
2022/04/21 02:39:08;;;;;;;19.10;14.73;;;;;;;4.57;100.00;96110.47;10535660;28;20215;-55
2022/04/21 02:44:08;;;;;;;19.30;15.03;;;;;;;4.48;100.00;96112.06;10535686;28;20635;-52
2022/04/21 02:49:09;;;;;;;21.00;15.27;;;;;;;4.38;100.00;96117.25;10534992;28;20217;-52
2022/04/21 03:00:08;;;;;;;21.53;15.73;;;;;;;4.29;100.00;96121.44;10509695;28;20543;-52
2022/04/21 03:05:09;;;;;;;23.67;18.20;;;;;;;4.24;100.00;96118.44;10534623;28;20190;-52
2022/04/21 03:10:09;;;;;;;24.53;16.87;;;;;;;4.31;100.00;96125.69;10534998;28;20243;-52
2022/04/21 03:15:11;;;;;;;21.27;15.80;;;;;;;4.52;100.00;96133.38;10539960;28;20224;-52
2022/04/21 03:24:18;;;;;;;25.40;16.37;;;;;;;4.47;100.00;96128.56;10543223;28;20190;-54
2022/04/21 03:25:34;;;;;;;26.00;17.13;;;;;;;4.47;100.00;96115.59;10542999;28;20230;-59
2022/04/21 03:30:34;;;;;;;20.03;15.87;;;;;;;4.73;100.00;96110.75;10542511;28;20268;-60
2022/04/21 03:35:35;;;;;;;24.27;16.13;;;;;;;4.86;100.00;96120.06;10542818;28;20281;-59
2022/04/21 03:40:35;;;;;;;25.00;16.97;;;;;;;4.63;100.00;96112.50;10542487;28;20199;-57
2022/04/21 03:45:35;;;;;;;20.57;16.27;;;;;;;4.83;100.00;96111.56;10542468;28;20217;-59
2022/04/21 03:50:36;;;;;;;23.40;17.40;;;;;;;4.74;100.00;96111.56;10542269;28;20187;-54
2022/04/21 03:55:36;;;;;;;24.40;18.27;;;;;;;4.77;100.00;96106.91;10541841;28;20297;-54
2022/04/21 04:00:36;;;;;;;19.93;16.53;;;;;;;4.69;100.00;96114.56;10541640;28;20198;-53
2022/04/21 04:05:37;;;;;;;28.47;18.43;;;;;;;4.56;100.00;96119.19;10541680;28;20202;-57
2022/04/21 04:10:52;;;;;;;32.33;20.93;;;;;;;4.52;100.00;96130.78;10567571;28;20196;-56
2022/04/21 04:16:01;;;;;;;31.27;21.30;;;;;;;4.53;100.00;96124.63;10569590;28;20230;-60
2022/04/21 04:21:14;;;;;;;31.93;22.10;;;;;;;4.76;100.00;96125.22;10568471;28;20255;-57
2022/04/21 04:26:24;;;;;;;29.13;20.00;;;;;;;4.80;100.00;96130.00;10568429;28;20226;-59
2022/04/21 04:31:39;;;;;;;31.53;20.57;;;;;;;4.95;100.00;96127.03;10570009;28;20231;-58
2022/04/21 04:42:41;;;;;;;42.97;22.83;;;;;;;4.80;100.00;96135.19;10556246;28;20198;-59
2022/04/21 04:47:42;;;;;;;32.60;22.23;;;;;;;4.81;100.00;96128.25;10570002;28;20222;-58
2022/04/21 04:53:01;;;;;;;36.80;24.70;;;;;;;4.62;100.00;96127.28;10570224;28;20214;-59
2022/04/21 04:58:02;;;;;;;33.40;23.73;;;;;;;4.88;100.00;96134.53;10550083;28;20210;-58
2022/04/21 05:03:02;;;;;;;37.93;24.63;;;;;;;4.92;100.00;96133.31;10564101;28;20659;-56
2022/04/21 05:08:05;;;;;;;38.33;24.10;;;;;;;4.90;100.00;96132.63;10539025;28;20309;-59
2022/04/21 05:13:06;;;;;;;36.53;23.43;;;;;;;4.79;100.00;96140.53;10521843;28;20214;-55
2022/04/21 05:18:06;;;;;;;40.37;24.97;;;;;;;4.79;100.00;96135.31;10539382;28;20210;-56
2022/04/21 05:23:07;;;;;;;38.70;25.87;;;;;;;4.85;100.00;96128.78;10538129;28;20190;-57
2022/04/21 05:28:09;;;;;;;40.60;25.33;;;;;;;4.89;100.00;96128.38;10538749;28;20239;-55
2022/04/21 05:33:10;;;;;;;37.27;22.87;;;;;;;4.93;100.00;96131.50;10538545;28;20714;-56
2022/04/21 05:38:11;;;;;;;36.47;22.70;;;;;;;4.99;100.00;96129.22;10537121;28;20259;-53
2022/04/21 05:43:14;;;;;;;34.73;19.37;;;;;;;5.07;100.00;96135.47;10537764;28;20244;-56
2022/04/21 05:48:15;;;;;;;41.20;19.67;;;;;;;5.14;100.00;96131.38;10538159;28;20206;-55
2022/04/21 05:53:21;;;;;;;41.97;20.10;;;;;;;5.18;100.00;96125.78;10538254;28;20226;-54
2022/04/21 05:58:25;;;;;;;42.60;21.70;;;;;;;4.90;100.00;96124.00;10537670;28;20290;-53
2022/04/21 06:03:26;;;;;;;44.83;18.93;;;;;;;5.14;100.00;96116.63;10524577;28;20175;-55
2022/04/21 06:08:27;;;;;;;53.73;18.23;;;;;;;5.26;100.00;96119.09;10532678;28;20202;-53
2022/04/21 06:13:27;;;;;;;53.07;16.93;;;;;;;5.29;100.00;96122.22;10537248;28;20222;-57
2022/04/21 06:18:28;;;;;;;38.43;15.50;;;;;;;5.41;100.00;96122.09;10519491;28;20576;-55
2022/04/21 06:23:30;;;;;;;37.83;16.40;;;;;;;5.51;100.00;96123.72;10518947;28;20186;-53
2022/04/21 06:28:31;;;;;;;49.00;17.17;;;;;;;5.54;100.00;96125.19;10533572;28;20247;-59
2022/04/21 06:33:32;;;;;;;39.73;15.77;;;;;;;5.67;100.00;96119.72;10536134;28;20237;-55
2022/04/21 06:38:32;;;;;;;42.23;14.43;;;;;;;5.57;100.00;96114.53;10536454;28;20211;-58
2022/04/21 06:48:51;;;;;;;36.03;13.83;;;;;;;5.66;100.00;96131.06;10535073;28;20214;-58
2022/04/21 06:53:52;;;;;;;31.53;14.33;;;;;;;5.74;100.00;96127.75;10526813;28;20211;-54
2022/04/21 06:58:53;;;;;;;36.73;14.67;;;;;;;5.94;100.00;96138.91;10522133;28;20214;-56
2022/04/21 07:03:53;;;;;;;33.60;14.53;;;;;;;5.96;100.00;96143.03;10507816;28;20272;-55
2022/04/21 07:08:54;;;;;;;34.70;15.10;;;;;;;5.83;100.00;96150.31;10492340;28;20322;-55
2022/04/21 07:13:55;;;;;;;41.77;16.40;;;;;;;5.72;100.00;96152.09;10509628;28;20218;-54
2022/04/21 07:18:55;;;;;;;40.90;17.10;;;;;;;5.74;100.00;96149.34;10507237;28;20214;-54
2022/04/21 07:23:56;;;;;;;41.33;17.77;;;;;;;5.78;100.00;96149.91;10494334;28;20669;-53
2022/04/21 07:28:57;;;;;;;31.03;16.93;;;;;;;5.99;100.00;96152.34;10490423;28;20643;-56
2022/04/21 07:33:57;;;;;;;34.53;17.87;;;;;;;6.01;100.00;96155.63;10488230;28;20756;-54
2022/04/21 07:38:58;;;;;;;32.17;16.90;;;;;;;6.10;100.00;96156.56;10495901;28;20237;-57
2022/04/21 07:43:58;;;;;;;35.13;17.07;;;;;;;6.01;100.00;96158.22;10491348;28;20199;-56
2022/04/21 07:54:18;;;;;;;39.40;15.60;;;;;;;5.82;100.00;96166.84;10517900;28;20657;-58
2022/04/21 07:59:20;;;;;;;33.10;15.50;;;;;;;5.84;100.00;96173.56;10510068;28;20214;-54
2022/04/21 08:04:20;;;;;;;36.77;15.70;;;;;;;6.08;100.00;96174.91;10517570;28;20335;-54
2022/04/21 08:09:20;;;;;;;35.17;17.83;;;;;;;6.07;100.00;96174.06;10521959;28;20211;-56
2022/04/21 08:14:21;;;;;;;46.23;17.90;;;;;;;5.23;100.00;96168.72;10507621;28;20226;-55
2022/04/21 08:19:21;;;;;;;38.10;18.53;;;;;;;5.30;100.00;96173.22;10515101;28;20217;-54
2022/04/21 08:35:03;;;;;;;45.63;18.93;;;;;;;5.81;100.00;96186.84;10534436;28;20272;-54
2022/04/21 08:40:04;;;;;;;45.13;19.50;;;;;;;6.06;100.00;96180.25;10534275;28;20207;-55
2022/04/21 08:45:06;;;;;;;38.03;17.93;;;;;;;6.34;100.00;96187.25;10534690;28;20179;-53
2022/04/21 08:50:11;;;;;;;32.10;16.07;;;;;;;6.50;100.00;96191.88;10518937;28;20210;-59
2022/04/21 08:55:11;;;;;;;28.77;14.70;;;;;;;6.45;100.00;96194.06;10515670;28;20588;-58
2022/04/21 09:00:12;;;;;;;29.30;15.70;;;;;;;6.53;100.00;96194.19;10509471;28;20191;-55
2022/04/21 09:05:12;;;;;;;35.07;19.90;;;;;;;6.83;100.00;96193.06;10500221;28;20188;-58
2022/04/21 09:10:14;;;;;;;34.73;19.07;;;;;;;6.84;100.00;96201.69;10499596;28;20221;-55
2022/04/21 09:15:16;;;;;;;35.13;18.27;;;;;;;6.72;100.00;96196.69;10493181;28;20219;-60
2022/04/21 09:20:18;;;;;;;28.73;16.83;;;;;;;6.82;100.00;96191.41;10492457;28;20223;-57
2022/04/21 09:25:24;;;;;;;31.83;17.60;;;;;;;6.97;100.00;96194.34;10493755;28;20209;-60
2022/04/21 09:30:25;;;;;;;36.10;18.20;;;;;;;6.72;100.00;96198.44;10505006;28;20184;-55
2022/04/21 09:35:27;;;;;;;34.33;16.87;;;;;;;7.02;100.00;96196.50;10496333;28;20226;-57
2022/04/21 09:40:29;;;;;;;30.60;17.77;;;;;;;7.23;100.00;96186.63;10533723;28;20190;-53
2022/04/21 09:50:57;;;;;;;33.43;18.17;;;;;;;7.33;100.00;96181.34;10504008;28;20555;-58
2022/04/21 09:56:08;;;;;;;32.67;17.47;;;;;;;7.14;100.00;96177.09;10490562;28;20215;-56
2022/04/21 10:01:09;;;;;;;33.13;19.27;;;;;;;7.31;100.00;96178.88;10523658;28;20194;-58
2022/04/21 10:06:10;;;;;;;29.13;16.93;;;;;;;7.12;100.00;96185.06;10532824;28;20989;-59
2022/04/21 10:11:11;;;;;;;36.23;19.77;;;;;;;6.84;100.00;96191.28;10529664;28;20206;-55
2022/04/21 10:16:16;;;;;;;35.77;19.43;;;;;;;6.81;100.00;96181.16;10532387;28;20198;-59
2022/04/21 10:21:29;;;;;;;36.23;20.40;;;;;;;6.90;100.00;96177.66;10528374;28;20205;-59
2022/04/21 10:26:38;;;;;;;34.67;20.13;;;;;;;6.95;100.00;96180.63;10501981;22;20332;-53
2022/04/21 10:31:51;;;;;;;33.60;19.30;;;;;;;7.24;100.00;96177.84;10446669;28;20219;-54
2022/04/21 10:37:14;;;;;;;35.20;21.97;;;;;;;7.16;100.00;96174.34;10443785;28;20227;-55
2022/04/21 10:42:17;;;;;;;38.10;20.33;;;;;;;7.11;100.00;96182.59;10446724;28;20257;-53
2022/04/21 10:47:36;;;;;;;43.73;22.13;;;;;;;6.99;100.00;96174.19;10446553;28;20262;-54
2022/04/21 10:57:39;;;;;;;40.50;20.70;;;;;;;7.30;100.00;96185.06;10447264;28;20254;-54
2022/04/21 11:02:40;;;;;;;46.73;27.83;;;;;;;7.05;100.00;96178.81;10446063;28;20292;-56
2022/04/21 11:07:50;;;;;;;40.43;22.17;;;;;;;7.34;100.00;96185.59;10446672;28;20589;-57
2022/04/21 11:12:50;;;;;;;38.60;20.07;;;;;;;7.69;100.00;96181.31;10447416;28;20222;-55
2022/04/21 11:18:01;;;;;;;38.00;19.63;;;;;;;8.18;100.00;96181.63;10421065;28;20200;-55
2022/04/21 11:23:02;;;;;;;40.33;23.70;;;;;;;7.96;100.00;96182.97;10422773;28;20594;-56
2022/04/21 11:28:02;;;;;;;40.73;23.33;;;;;;;8.13;100.00;96176.06;10405736;28;20286;-58
2022/04/21 11:33:08;;;;;;;41.53;23.10;;;;;;;8.18;100.00;96165.16;10404361;28;20645;-58
2022/04/21 11:38:08;;;;;;;33.67;20.50;;;;;;;8.17;100.00;96169.53;10451514;28;20228;-59
2022/04/21 11:43:12;;;;;;;29.03;19.07;;;;;;;7.90;100.00;96172.31;10455415;28;20200;-58
2022/04/21 11:48:14;;;;;;;28.57;17.47;;;;;;;8.13;100.00;96168.25;10454213;28;20301;-58
2022/04/21 11:53:18;;;;;;;32.63;17.77;;;;;;;8.24;100.00;96166.31;10454095;28;20212;-58
2022/04/21 11:58:51;;;;;;;24.97;16.57;;;;;;;7.91;100.00;96168.75;10454231;28;20997;-55
2022/04/21 12:09:20;;;;;;;26.40;16.70;;;;;;;7.92;100.00;96167.78;10452905;28;20821;-54
2022/04/21 12:14:21;;;;;;;28.07;16.50;;;;;;;8.09;100.00;96171.31;10451976;28;20690;-56
2022/04/21 12:19:35;;;;;;;22.17;15.10;;;;;;;8.18;100.00;96175.59;10452751;28;20258;-54
2022/04/21 12:24:50;;;;;;;25.40;15.23;;;;;;;7.74;100.00;96176.44;10453171;28;20877;-54
2022/04/21 12:29:53;;;;;;;23.10;15.03;;;;;;;7.66;100.00;96169.41;10452602;28;20988;-54
2022/04/21 12:34:56;;;;;;;20.30;14.27;;;;;;;7.63;100.00;96171.50;10452195;28;20212;-55
2022/04/21 12:39:57;;;;;;;25.17;15.93;;;;;;;7.35;100.00;96171.59;10433483;28;20239;-55
2022/04/21 12:44:58;;;;;;;24.47;15.43;;;;;;;7.42;100.00;96174.41;10434740;28;20204;-53
2022/04/21 12:50:03;;;;;;;22.50;15.23;;;;;;;7.38;100.00;96173.06;10403546;28;20291;-54
2022/04/21 12:55:06;;;;;;;22.23;15.30;;;;;;;7.57;100.00;96177.31;10431236;28;20216;-54
2022/04/21 13:00:09;;;;;;;20.17;14.53;;;;;;;7.54;100.00;96167.19;10429398;28;20291;-54
2022/04/21 13:05:09;;;;;;;20.90;15.33;;;;;;;7.45;100.00;96168.91;10429225;28;20481;-56
2022/04/21 13:10:10;;;;;;;27.07;17.50;;;;;;;7.39;100.00;96166.91;10428492;28;20323;-53
2022/04/21 13:15:10;;;;;;;31.87;18.57;;;;;;;7.53;100.00;96165.53;10426526;28;20212;-57
2022/04/21 13:20:11;;;;;;;23.53;17.53;;;;;;;7.73;100.00;96171.41;10428862;28;20212;-55
2022/04/21 13:25:11;;;;;;;22.97;16.63;;;;;;;7.66;100.00;96161.56;10426057;28;20188;-54
2022/04/21 13:30:12;;;;;;;25.87;18.37;;;;;;;7.78;100.00;96154.34;10424115;28;20243;-55
2022/04/21 13:35:12;;;;;;;22.23;16.13;;;;;;;7.68;100.00;96149.19;10409286;28;20236;-54
2022/04/21 13:40:13;;;;;;;29.67;17.17;;;;;;;7.73;100.00;96153.94;10407644;28;20223;-55
2022/04/21 13:45:14;;;;;;;23.63;15.97;;;;;;;7.63;100.00;96171.50;10422899;28;20711;-58
2022/04/21 13:50:15;;;;;;;27.83;18.23;;;;;;;7.73;100.00;96163.56;10411318;28;20200;-55
2022/04/21 13:55:15;;;;;;;29.20;17.77;;;;;;;8.14;100.00;96161.22;10411540;28;20232;-56
2022/04/21 14:00:16;;;;;;;23.00;15.90;;;;;;;8.59;100.00;96161.94;10411184;28;20212;-54
2022/04/21 14:05:16;;;;;;;32.00;20.33;;;;;;;8.78;100.00;96153.84;10411504;28;20246;-54
2022/04/21 14:10:17;;;;;;;21.83;14.47;;;;;;;8.42;100.00;96151.41;10411360;28;20307;-56
2022/04/21 14:15:17;;;;;;;24.77;14.60;;;;;;;8.08;100.00;96156.63;10427629;28;20211;-56
2022/04/21 14:20:17;;;;;;;21.33;13.90;;;;;;;7.76;100.00;96156.25;10451573;28;20231;-56
2022/04/21 14:25:19;;;;;;;24.30;16.80;;;;;;;7.42;100.00;96164.81;10433877;28;20267;-58
2022/04/21 14:30:19;;;;;;;27.23;16.97;;;;;;;7.37;100.00;96163.63;10426596;28;20237;-54
2022/04/21 14:35:22;;;;;;;25.00;15.87;;;;;;;7.50;100.00;96151.00;10410104;28;20224;-55
2022/04/21 14:45:43;;;;;;;28.70;16.97;;;;;;;7.67;100.00;96154.56;10448022;28;20184;-58
2022/04/21 14:50:44;;;;;;;30.63;17.90;;;;;;;7.62;100.00;96157.63;10432498;28;20278;-57
2022/04/21 14:55:44;;;;;;;27.90;17.83;;;;;;;7.64;100.00;96152.25;10428020;28;20215;-55
2022/04/21 15:00:44;;;;;;;30.00;17.03;;;;;;;7.66;100.00;96145.13;10446163;28;20200;-55
2022/04/21 15:05:45;;;;;;;24.20;17.27;;;;;;;7.92;100.00;96147.72;10450161;28;20187;-55
2022/04/21 15:10:45;;;;;;;26.40;15.93;;;;;;;7.80;100.00;96151.56;10450341;28;20269;-55
2022/04/21 15:15:46;;;;;;;17.83;12.10;;;;;;;7.49;100.00;96160.63;10450066;28;20694;-55
2022/04/21 15:20:46;;;;;;;18.37;12.37;;;;;;;7.35;100.00;96165.56;10433627;28;20663;-56
2022/04/21 15:25:47;;;;;;;16.10;8.60;;;;;;;7.37;100.00;96167.03;10412778;28;20780;-55
2022/04/21 15:30:47;;;;;;;13.33;7.53;;;;;;;7.10;100.00;96168.75;10408940;28;20220;-54
2022/04/21 15:35:48;;;;;;;10.63;6.80;;;;;;;7.18;100.00;96161.97;10417450;28;20224;-53
2022/04/21 15:40:48;;;;;;;13.03;8.13;;;;;;;7.04;100.00;96161.53;10442065;28;20200;-54
2022/04/21 15:45:48;;;;;;;13.47;8.43;;;;;;;7.01;100.00;96161.00;10426197;28;20246;-55
2022/04/21 15:50:51;;;;;;;15.77;9.13;;;;;;;7.01;100.00;96161.81;10448060;28;20280;-53
2022/04/21 16:01:10;;;;;;;16.00;9.70;;;;;;;6.94;100.00;96171.22;10427654;28;20196;-55
2022/04/21 16:06:10;;;;;;;12.73;9.37;;;;;;;6.86;100.00;96171.94;10422073;28;20299;-53
2022/04/21 16:11:11;;;;;;;17.30;10.83;;;;;;;7.02;100.00;96167.88;10410255;28;20200;-53
2022/04/21 16:16:11;;;;;;;16.20;9.20;;;;;;;7.16;100.00;96169.13;10409583;28;20302;-54
2022/04/21 16:21:12;;;;;;;16.63;9.87;;;;;;;7.32;100.00;96164.09;10420379;28;20192;-55
2022/04/21 16:26:13;;;;;;;17.60;10.30;;;;;;;7.45;100.00;96161.09;10455037;28;20698;-53
2022/04/21 16:31:13;;;;;;;19.20;10.70;;;;;;;7.34;100.00;96164.75;10479257;22;20244;-54
2022/04/21 16:36:13;;;;;;;26.80;17.30;;;;;;;7.19;100.00;96166.25;10457766;28;20229;-56
2022/04/21 16:41:14;;;;;;;238.37;120.40;;;;;;;7.18;100.00;96173.22;10456666;28;20218;-58
2022/04/21 16:46:14;;;;;;;77.43;42.13;;;;;;;7.27;100.00;96158.47;10454377;28;20275;-59
2022/04/21 16:51:15;;;;;;;18.37;12.43;;;;;;;7.23;100.00;96159.75;10454019;28;20215;-56
2022/04/21 16:56:16;;;;;;;23.20;14.90;;;;;;;7.22;100.00;96161.53;10453646;28;20191;-58
2022/04/21 17:06:35;;;;;;;33.30;20.50;;;;;;;7.23;100.00;96157.97;10454104;28;20662;-59
2022/04/21 17:11:36;;;;;;;25.77;16.50;;;;;;;7.12;100.00;96151.19;10453462;28;20211;-60
2022/04/21 17:16:36;;;;;;;26.13;16.93;;;;;;;7.08;100.00;96156.84;10437390;28;20203;-58
2022/04/21 17:21:36;;;;;;;28.73;19.03;;;;;;;6.88;100.00;96166.59;10454490;28;20307;-59
2022/04/21 17:26:37;;;;;;;31.37;19.30;;;;;;;6.72;100.00;96156.81;10451733;28;20208;-56
2022/04/21 17:31:37;;;;;;;30.87;18.27;;;;;;;6.66;100.00;96168.63;10453319;28;20240;-56
2022/04/21 17:36:38;;;;;;;37.40;20.30;;;;;;;6.53;100.00;96165.56;10454846;28;20245;-55
2022/04/21 17:41:38;;;;;;;33.27;20.40;;;;;;;6.54;100.00;96168.00;10454762;28;20211;-57
2022/04/21 17:46:38;;;;;;;32.80;21.50;;;;;;;6.53;100.00;96168.16;10436758;28;20191;-60
2022/04/21 17:51:39;;;;;;;33.80;21.80;;;;;;;6.53;100.00;96162.94;10453531;28;20247;-54
2022/04/21 18:02:40;;;;;;;46.13;24.57;;;;;;;6.27;100.00;96158.41;10465231;28;20261;-55
2022/04/21 18:07:40;;;;;;;50.90;26.97;;;;;;;6.28;100.00;96167.84;10451731;28;20245;-59
2022/04/21 18:12:41;;;;;;;53.57;27.57;;;;;;;6.25;100.00;96160.34;10452009;28;20636;-59
2022/04/21 18:17:41;;;;;;;47.83;26.63;;;;;;;6.24;100.00;96158.69;10452844;28;20187;-60
2022/04/21 18:22:42;;;;;;;49.60;26.80;;;;;;;6.24;100.00;96158.69;10452268;28;20698;-60
2022/04/21 18:27:42;;;;;;;53.07;28.33;;;;;;;6.17;100.00;96157.63;10452489;28;20184;-58
2022/04/21 18:32:43;;;;;;;48.43;27.93;;;;;;;6.23;100.00;96149.25;10452274;28;20322;-60
2022/04/21 18:37:43;;;;;;;54.53;28.40;;;;;;;6.24;100.00;96148.28;10452193;28;20196;-61
2022/04/21 18:42:43;;;;;;;52.13;29.57;;;;;;;6.22;100.00;96147.63;10452090;28;20200;-61
2022/04/21 18:47:44;;;;;;;49.53;28.57;;;;;;;6.31;100.00;96149.34;10451869;28;20286;-59
2022/04/21 18:52:44;;;;;;;49.70;28.47;;;;;;;6.24;100.00;96143.09;10450048;28;20220;-59
2022/04/21 19:03:04;;;;;;;50.80;29.90;;;;;;;6.21;100.00;96151.19;10451547;28;20188;-60
2022/04/21 19:08:04;;;;;;;47.07;29.00;;;;;;;6.19;100.00;96153.09;10451828;28;20227;-61
2022/04/21 19:13:05;;;;;;;50.97;29.67;;;;;;;6.20;100.00;96152.13;10451264;28;20227;-59
2022/04/21 19:18:05;;;;;;;47.10;27.23;;;;;;;6.34;100.00;96158.63;10451771;28;20207;-57
2022/04/21 19:23:06;;;;;;;45.80;28.90;;;;;;;6.41;100.00;96146.69;10433317;28;20716;-58
2022/04/21 19:28:07;;;;;;;47.53;28.83;;;;;;;6.38;100.00;96155.59;10449504;28;20705;-59
2022/04/21 19:33:08;;;;;;;52.63;27.63;;;;;;;6.29;100.00;96151.25;10450414;28;20219;-58
2022/04/21 19:38:08;;;;;;;46.47;29.73;;;;;;;6.29;100.00;96146.06;10449925;28;20207;-57
2022/04/21 19:43:09;;;;;;;49.17;29.27;;;;;;;6.30;100.00;96142.50;10450168;28;20604;-58
2022/04/21 19:48:10;;;;;;;45.93;28.13;;;;;;;6.32;100.00;96139.75;10443627;28;20294;-61
2022/04/21 19:53:10;;;;;;;47.10;28.83;;;;;;;6.30;100.00;96136.50;10446385;28;20212;-58
2022/04/21 19:58:10;;;;;;;50.10;29.07;;;;;;;6.23;100.00;96131.03;10455766;28;20238;-59
2022/04/21 20:03:12;;;;;;;52.30;30.77;;;;;;;6.24;100.00;96132.69;10457457;28;20191;-58
2022/04/21 20:13:31;;;;;;;51.73;30.60;;;;;;;6.23;100.00;96116.25;10456186;28;20246;-60
2022/04/21 20:18:32;;;;;;;50.70;29.90;;;;;;;6.32;100.00;96114.56;10456569;28;20204;-60
2022/04/21 20:23:32;;;;;;;57.13;30.10;;;;;;;6.26;100.00;96112.53;10456964;28;20188;-60
2022/04/21 20:28:32;;;;;;;49.10;28.03;;;;;;;6.28;100.00;96110.63;10455900;28;20245;-59
2022/04/21 20:33:33;;;;;;;51.00;28.77;;;;;;;6.25;100.00;96106.53;10456656;28;20226;-60
2022/04/21 20:38:39;;;;;;;46.80;29.93;;;;;;;6.27;100.00;96108.97;10456017;28;20204;-60
2022/04/21 20:43:41;;;;;;;50.80;29.10;;;;;;;6.27;100.00;96103.78;10453360;28;20560;-58
2022/04/21 20:48:41;;;;;;;50.50;30.47;;;;;;;6.29;100.00;96111.44;10457277;28;20251;-58
2022/04/21 20:53:42;;;;;;;46.63;28.83;;;;;;;6.22;100.00;96109.41;10455419;28;20824;-55
2022/04/21 20:58:42;;;;;;;47.63;28.80;;;;;;;6.22;100.00;96109.41;10456972;28;20303;-56
2022/04/21 21:03:42;;;;;;;48.63;28.67;;;;;;;6.21;100.00;96114.75;10457050;28;20195;-58
2022/04/21 21:08:43;;;;;;;49.80;28.27;;;;;;;6.25;100.00;96103.13;10454870;28;20745;-58
2022/04/21 21:13:43;;;;;;;49.00;29.43;;;;;;;6.21;100.00;96106.97;10456246;28;20713;-56
2022/04/21 21:18:46;;;;;;;44.87;28.83;;;;;;;6.29;100.00;96108.84;10455692;28;20724;-56
2022/04/21 21:23:46;;;;;;;44.83;27.40;;;;;;;6.30;100.00;96110.50;10456311;28;20192;-55
2022/04/21 21:28:46;;;;;;;49.87;30.70;;;;;;;6.24;100.00;96112.69;10455186;28;20243;-58
2022/04/21 21:33:47;;;;;;;44.53;28.13;;;;;;;6.29;100.00;96108.84;10455643;28;20231;-59
2022/04/21 21:38:47;;;;;;;42.70;28.30;;;;;;;6.18;100.00;96102.84;10455481;28;20227;-60
2022/04/21 21:43:50;;;;;;;49.27;29.00;;;;;;;6.29;100.00;96112.25;10454986;28;20275;-57
2022/04/21 21:54:10;;;;;;;48.70;29.00;;;;;;;6.24;100.00;96104.06;10454650;28;20705;-58
2022/04/21 21:59:11;;;;;;;47.10;27.87;;;;;;;6.25;100.00;96097.91;10454513;28;20222;-57
2022/04/21 22:04:12;;;;;;;44.50;26.90;;;;;;;6.23;100.00;96089.41;10453749;28;20271;-59
2022/04/21 22:09:13;;;;;;;41.13;25.63;;;;;;;6.16;100.00;96088.38;10453859;28;20295;-57
2022/04/21 22:14:13;;;;;;;39.73;25.70;;;;;;;6.14;100.00;96082.47;10453408;28;20306;-60
2022/04/21 22:19:14;;;;;;;45.13;25.33;;;;;;;6.10;100.00;96083.75;10452942;28;20219;-55
2022/04/21 22:24:14;;;;;;;46.57;27.87;;;;;;;6.13;100.00;96079.06;10453080;28;20662;-54
2022/04/21 22:29:14;;;;;;;44.33;27.20;;;;;;;6.39;100.00;96075.78;10470011;22;20618;-58
2022/04/21 22:34:15;;;;;;;41.33;26.27;;;;;;;6.40;100.00;96059.19;10411174;28;20598;-60
2022/04/21 22:39:15;;;;;;;46.53;27.23;;;;;;;6.22;100.00;96059.19;10411842;28;20209;-59
2022/04/21 22:44:15;;;;;;;41.73;27.50;;;;;;;6.19;100.00;96056.88;10411406;28;20258;-59
2022/04/21 22:49:16;;;;;;;56.10;29.77;;;;;;;6.16;100.00;96062.38;10411045;28;20215;-60
2022/04/21 22:54:16;;;;;;;46.40;28.63;;;;;;;6.12;100.00;96050.63;10410979;28;20235;-54
2022/04/21 22:59:17;;;;;;;46.93;27.90;;;;;;;6.46;100.00;96031.78;10411042;28;20212;-57
2022/04/21 23:04:17;;;;;;;40.83;25.87;;;;;;;6.32;100.00;96033.09;10411076;28;20184;-56
2022/04/21 23:14:36;;;;;;;39.13;25.83;;;;;;;6.09;100.00;96015.31;10410729;28;20220;-56
2022/04/21 23:19:37;;;;;;;44.43;26.73;;;;;;;6.17;100.00;96018.03;10409763;28;20592;-59
2022/04/21 23:24:37;;;;;;;43.23;27.83;;;;;;;5.92;100.00;96009.06;10410718;28;20256;-57
2022/04/21 23:29:37;;;;;;;45.67;28.77;;;;;;;5.75;100.00;96004.66;10410465;28;20327;-57
2022/04/21 23:34:38;;;;;;;46.07;27.23;;;;;;;5.79;100.00;96000.78;10418946;28;20247;-56
2022/04/21 23:39:40;;;;;;;59.53;36.87;;;;;;;5.88;100.00;96003.34;10418194;28;20751;-54
2022/04/21 23:44:41;;;;;;;44.17;27.43;;;;;;;5.95;100.00;95994.97;10418336;28;20184;-56
2022/04/21 23:49:41;;;;;;;44.87;29.80;;;;;;;5.99;100.00;95991.97;10417550;28;20208;-54
2022/04/21 23:54:42;;;;;;;46.43;28.73;;;;;;;6.04;100.00;95979.34;10417790;28;20224;-58
2022/04/21 23:59:42;;;;;;;43.67;28.53;;;;;;;5.96;100.00;95976.63;10417619;28;20217;-54
